Monroeville, Alabama
Current Conditions -  °F | °C
As of 2:53 AM on Sunday 21 Dec 2014 (Local Time) from KGZH Reporting Station
Overcast Overcast  
Wind Chill: 52°   Ceiling: 600
Heat Index: 52°   Visibility: 7mi
Dew Point: 49°   Wind: 5mph
Humidity: 89%   Direction: 20°NNE
Pressure: 30.13"   Gusts: NA
Location:  31.53°N, 87.32°W
Report Text: KGZH 210853Z AUTO 02004KT 7SM OVC006 11/09 A3013 RMK AO2 SLP203 T01110094 58006
Loading
Personal Weather Stations






























Interactive Weather Map New forecast layout! Learn more

10-Day Weather Forecast

Advertisements
Track Severe Weather on mobile